Time;durP1;ratioP1;P1;durP2;ratioP2;P2;SDS_P1;SDS_P2;PMS_P1;PMS_P2;Temp;Humidity;BMP_temperature;BMP_pressure;BME280_temperature;BME280_humidity;BME280_pressure;Samples;Min_cycle;Max_cycle;Signal;HPM_P1;HPM_P2
2021/03/31 00:01:34;;;;;;;6.65;3.25;;;;;;;;;;5052386;28;20447;-73
2021/03/31 00:04:00;;;;;;;9.93;3.75;;;;;;;;;;5051923;28;20082;-73
2021/03/31 00:06:26;;;;;;;7.55;2.85;;;;;;;;;;5051055;28;20512;-73
2021/03/31 00:08:52;;;;;;;5.75;2.88;;;;;;;;;;5051873;28;20069;-73
2021/03/31 00:11:19;;;;;;;6.72;2.92;;;;;;;;;;5051018;28;20032;-73
2021/03/31 00:13:45;;;;;;;8.48;3.83;;;;;;;;;;5052237;28;20021;-73
2021/03/31 00:16:12;;;;;;;7.00;3.28;;;;;;;;;;5051941;28;20040;-73
2021/03/31 00:18:38;;;;;;;4.97;2.60;;;;;;;;;;5052117;28;20053;-73
2021/03/31 00:21:05;;;;;;;4.88;2.70;;;;;;;;;;5052204;28;20021;-73
2021/03/31 00:23:31;;;;;;;5.82;2.63;;;;;;;;;;5051833;28;20443;-73
2021/03/31 00:25:58;;;;;;;7.88;2.30;;;;;;;;;;5052141;28;20021;-73
2021/03/31 00:28:25;;;;;;;4.93;2.58;;;;;;;;;;5050874;28;20022;-73
2021/03/31 00:30:51;;;;;;;4.53;2.15;;;;;;;;;;5051684;28;20025;-73
2021/03/31 00:33:18;;;;;;;6.95;3.50;;;;;;;;;;5052096;28;20430;-73
2021/03/31 00:35:44;;;;;;;6.05;2.67;;;;;;;;;;5052240;28;20025;-73
2021/03/31 00:38:11;;;;;;;6.90;3.22;;;;;;;;;;5051661;28;20033;-73
2021/03/31 00:40:38;;;;;;;3.63;2.35;;;;;;;;;;5052158;28;20025;-73
2021/03/31 00:43:05;;;;;;;5.53;2.55;;;;;;;;;;5052006;28;20532;-73
2021/03/31 00:45:31;;;;;;;3.85;2.55;;;;;;;;;;5051580;28;20017;-73
2021/03/31 00:47:57;;;;;;;4.93;2.38;;;;;;;;;;5051999;28;20053;-73
2021/03/31 00:50:23;;;;;;;6.68;2.70;;;;;;;;;;5051954;28;20513;-73
2021/03/31 00:52:52;;;;;;;5.45;2.85;;;;;;;;;;5051526;28;20033;-73
2021/03/31 00:55:20;;;;;;;5.97;2.60;;;;;;;;;;5050623;28;20474;-73
2021/03/31 00:57:47;;;;;;;9.65;3.28;;;;;;;;;;5051959;28;20037;-73
2021/03/31 01:00:14;;;;;;;6.80;2.35;;;;;;;;;;5050235;28;20021;-73
2021/03/31 01:02:41;;;;;;;3.70;2.00;;;;;;;;;;5051915;28;20123;-73
2021/03/31 01:05:08;;;;;;;4.00;2.20;;;;;;;;;;5053814;28;20033;-73
2021/03/31 01:07:34;;;;;;;3.78;2.20;;;;;;;;;;5055867;28;20021;-73
2021/03/31 01:10:01;;;;;;;5.53;2.50;;;;;;;;;;5055522;28;20029;-73
2021/03/31 01:12:40;;;;;;;6.13;2.78;;;;;;;;;;5055167;28;20032;-73
2021/03/31 01:15:12;;;;;;;6.55;3.25;;;;;;;;;;5055587;28;20028;-73
2021/03/31 01:17:57;;;;;;;8.40;2.80;;;;;;;;;;5055333;28;20041;-73
2021/03/31 01:20:37;;;;;;;6.45;2.35;;;;;;;;;;5055029;28;20029;-73
2021/03/31 01:23:03;;;;;;;5.55;2.55;;;;;;;;;;5055358;28;20025;-73
2021/03/31 01:25:37;;;;;;;5.47;2.63;;;;;;;;;;5055547;28;20075;-74
2021/03/31 01:28:22;;;;;;;5.25;2.67;;;;;;;;;;5054781;28;20135;-73
2021/03/31 01:31:12;;;;;;;6.78;2.90;;;;;;;;;;5055070;28;20071;-74
2021/03/31 01:33:47;;;;;;;5.72;3.22;;;;;;;;;;5050552;28;20025;-73
2021/03/31 01:36:16;;;;;;;4.97;2.85;;;;;;;;;;5054137;28;20079;-73
2021/03/31 01:38:43;;;;;;;5.22;2.72;;;;;;;;;;5055048;28;20037;-73
2021/03/31 01:41:10;;;;;;;8.48;3.17;;;;;;;;;;5054626;28;20032;-73
2021/03/31 01:43:36;;;;;;;5.25;2.92;;;;;;;;;;5055125;28;20370;-73
2021/03/31 01:46:02;;;;;;;6.00;2.33;;;;;;;;;;5054928;28;20017;-73
2021/03/31 01:48:30;;;;;;;6.50;2.33;;;;;;;;;;5053075;28;20031;-73
2021/03/31 01:50:59;;;;;;;6.78;2.47;;;;;;;;;;5054767;28;20024;-73
2021/03/31 01:53:25;;;;;;;4.93;2.58;;;;;;;;;;5054698;28;20025;-73
2021/03/31 01:55:52;;;;;;;6.05;2.83;;;;;;;;;;5054238;28;20017;-73
2021/03/31 01:58:19;;;;;;;5.68;2.90;;;;;;;;;;5053437;28;20446;-73
2021/03/31 02:00:46;;;;;;;8.32;3.05;;;;;;;;;;5054766;28;20095;-73
2021/03/31 02:03:15;;;;;;;6.18;3.00;;;;;;;;;;5054108;28;20032;-73
2021/03/31 02:05:41;;;;;;;5.28;2.55;;;;;;;;;;5054488;28;20590;-73
2021/03/31 02:08:08;;;;;;;5.38;2.50;;;;;;;;;;5054432;28;20031;-73
2021/03/31 02:10:34;;;;;;;4.82;2.45;;;;;;;;;;5054010;28;20412;-73
2021/03/31 02:13:02;;;;;;;4.47;2.63;;;;;;;;;;5054313;28;20420;-73
2021/03/31 02:15:30;;;;;;;5.90;2.72;;;;;;;;;;5052623;28;20021;-73
2021/03/31 02:17:57;;;;;;;5.72;2.50;;;;;;;;;;5054164;28;20116;-73
2021/03/31 02:20:24;;;;;;;5.53;2.55;;;;;;;;;;5054353;28;20027;-73
2021/03/31 02:22:51;;;;;;;7.00;2.90;;;;;;;;;;5052582;28;20087;-73
2021/03/31 02:25:18;;;;;;;5.70;3.22;;;;;;;;;;5054121;28;20096;-73
2021/03/31 02:27:45;;;;;;;5.70;3.13;;;;;;;;;;5054054;28;20496;-73
2021/03/31 02:30:13;;;;;;;5.55;2.88;;;;;;;;;;5052293;28;20055;-73
2021/03/31 02:32:40;;;;;;;6.57;3.28;;;;;;;;;;5054001;28;20067;-73
2021/03/31 02:35:07;;;;;;;7.00;3.63;;;;;;;;;;5054426;28;20096;-73
2021/03/31 02:37:33;;;;;;;6.75;3.42;;;;;;;;;;5053791;28;20029;-73
2021/03/31 02:40:00;;;;;;;5.20;2.78;;;;;;;;;;5053837;28;20108;-73
2021/03/31 02:42:27;;;;;;;6.40;3.15;;;;;;;;;;5053804;28;20025;-73
2021/03/31 02:44:54;;;;;;;5.35;2.70;;;;;;;;;;5053379;28;20108;-73
2021/03/31 02:47:28;;;;;;;6.53;3.30;;;;;;;;;;5052414;28;20520;-73
2021/03/31 02:49:57;;;;;;;5.85;2.53;;;;;;;;;;5053720;28;20048;-73
2021/03/31 02:52:24;;;;;;;7.05;3.22;;;;;;;;;;5053189;28;20055;-73
2021/03/31 02:54:51;;;;;;;7.68;3.92;;;;;;;;;;5053642;28;20108;-73
2021/03/31 02:57:18;;;;;;;6.43;3.15;;;;;;;;;;5053736;28;20025;-73
2021/03/31 02:59:45;;;;;;;6.00;3.05;;;;;;;;;;5053071;28;20108;-73
2021/03/31 03:02:12;;;;;;;6.07;2.70;;;;;;;;;;5053423;28;20103;-73
2021/03/31 03:04:38;;;;;;;5.28;2.92;;;;;;;;;;5053211;28;20025;-73
2021/03/31 03:07:06;;;;;;;6.18;2.90;;;;;;;;;;5053262;28;20022;-73
2021/03/31 03:09:33;;;;;;;6.35;3.33;;;;;;;;;;5053259;28;20021;-73
2021/03/31 03:12:00;;;;;;;5.78;2.90;;;;;;;;;;5052883;28;20055;-73
2021/03/31 03:14:27;;;;;;;7.97;3.17;;;;;;;;;;5051956;28;20034;-73
2021/03/31 03:16:53;;;;;;;7.25;3.55;;;;;;;;;;5051870;28;20101;-72
2021/03/31 03:19:20;;;;;;;8.48;3.28;;;;;;;;;;5052675;28;20040;-73
2021/03/31 03:21:48;;;;;;;5.55;3.08;;;;;;;;;;5053293;28;20017;-73
2021/03/31 03:24:14;;;;;;;7.15;3.13;;;;;;;;;;5052989;28;20028;-73
2021/03/31 03:26:41;;;;;;;8.00;3.22;;;;;;;;;;5050829;28;20017;-73
2021/03/31 03:29:07;;;;;;;8.45;4.43;;;;;;;;;;5052916;28;20540;-73
2021/03/31 03:31:35;;;;;;;8.15;4.28;;;;;;;;;;5052846;28;20081;-73
2021/03/31 03:34:02;;;;;;;10.02;4.75;;;;;;;;;;5052589;28;20025;-73
2021/03/31 03:36:28;;;;;;;8.02;4.18;;;;;;;;;;5053037;28;20021;-73
2021/03/31 03:38:55;;;;;;;7.70;4.20;;;;;;;;;;5052743;28;20033;-73
2021/03/31 03:41:21;;;;;;;6.75;3.53;;;;;;;;;;5052285;28;20025;-73
2021/03/31 03:43:47;;;;;;;6.00;3.83;;;;;;;;;;5052679;28;20032;-73
2021/03/31 03:46:13;;;;;;;8.63;3.92;;;;;;;;;;5052618;28;20039;-73
2021/03/31 03:48:40;;;;;;;7.57;3.70;;;;;;;;;;5052255;28;20028;-73
2021/03/31 03:51:07;;;;;;;6.85;3.95;;;;;;;;;;5053155;28;20472;-73
2021/03/31 03:53:33;;;;;;;5.55;3.10;;;;;;;;;;5052649;28;20083;-73
2021/03/31 03:56:01;;;;;;;6.63;2.90;;;;;;;;;;5052368;28;20071;-73
2021/03/31 03:58:27;;;;;;;6.72;3.90;;;;;;;;;;5052351;28;20421;-73
2021/03/31 04:00:54;;;;;;;8.75;3.42;;;;;;;;;;5052038;28;20478;-73
2021/03/31 04:03:20;;;;;;;9.73;4.03;;;;;;;;;;5052378;28;20074;-73
2021/03/31 04:05:47;;;;;;;8.55;3.58;;;;;;;;;;5052713;28;20021;-73
2021/03/31 04:08:13;;;;;;;6.60;3.25;;;;;;;;;;5051961;28;20033;-73
2021/03/31 04:10:40;;;;;;;8.32;4.15;;;;;;;;;;5052336;28;20303;-72
2021/03/31 04:13:07;;;;;;;7.30;3.38;;;;;;;;;;5052296;28;20029;-73
2021/03/31 04:15:33;;;;;;;6.53;3.60;;;;;;;;;;5050621;28;20053;-72
2021/03/31 04:18:02;;;;;;;8.07;3.55;;;;;;;;;;5050475;28;20049;-73
2021/03/31 04:20:28;;;;;;;5.38;3.35;;;;;;;;;;5050623;28;20095;-73
2021/03/31 04:22:55;;;;;;;7.57;3.67;;;;;;;;;;5051795;28;20100;-73
2021/03/31 04:25:23;;;;;;;9.63;4.07;;;;;;;;;;5052161;28;20105;-73
2021/03/31 04:27:50;;;;;;;4.93;3.03;;;;;;;;;;5050732;28;20409;-73
2021/03/31 04:30:18;;;;;;;8.07;3.42;;;;;;;;;;5051815;28;20028;-73
2021/03/31 04:32:45;;;;;;;6.85;2.92;;;;;;;;;;5052200;28;20017;-73
2021/03/31 04:35:12;;;;;;;6.60;3.28;;;;;;;;;;5051860;28;20025;-73
2021/03/31 04:37:39;;;;;;;6.97;4.30;;;;;;;;;;5049721;28;20056;-73
2021/03/31 04:40:09;;;;;;;9.43;4.30;;;;;;;;;;5052807;28;20402;-73
2021/03/31 04:42:35;;;;;;;11.13;5.88;;;;;;;;;;5054135;28;20021;-73
2021/03/31 04:45:01;;;;;;;8.68;5.38;;;;;;;;;;5053707;28;20086;-73
2021/03/31 04:47:27;;;;;;;13.55;6.47;;;;;;;;;;5054012;28;20029;-73
2021/03/31 04:49:53;;;;;;;9.30;5.45;;;;;;;;;;5054030;28;20048;-73
2021/03/31 04:52:20;;;;;;;12.50;7.90;;;;;;;;;;5055768;28;20017;-74
2021/03/31 04:54:46;;;;;;;11.90;7.13;;;;;;;;;;5055962;28;20533;-73
2021/03/31 04:57:12;;;;;;;11.48;4.95;;;;;;;;;;5050220;28;20024;-73
2021/03/31 04:59:38;;;;;;;9.25;4.20;;;;;;;;;;5039961;28;20025;-73
2021/03/31 05:02:04;;;;;;;17.77;10.93;;;;;;;;;;5041866;28;20546;-73
2021/03/31 05:04:30;;;;;;;10.10;4.45;;;;;;;;;;5042566;28;20029;-73
2021/03/31 05:06:57;;;;;;;10.35;4.55;;;;;;;;;;5043208;28;20025;-72
2021/03/31 05:09:23;;;;;;;11.27;5.57;;;;;;;;;;5042594;28;20028;-74
2021/03/31 05:11:49;;;;;;;14.25;7.70;;;;;;;;;;5041573;28;20025;-73
2021/03/31 05:14:15;;;;;;;21.73;11.82;;;;;;;;;;5033988;28;20116;-73
2021/03/31 05:16:41;;;;;;;18.45;7.18;;;;;;;;;;5034727;28;20032;-73
2021/03/31 05:19:08;;;;;;;16.10;7.13;;;;;;;;;;5033727;28;20075;-73
2021/03/31 05:21:34;;;;;;;12.90;6.20;;;;;;;;;;5035388;28;20017;-73
2021/03/31 05:24:00;;;;;;;13.30;7.88;;;;;;;;;;5035338;28;20025;-74
2021/03/31 05:26:26;;;;;;;17.40;8.40;;;;;;;;;;5033351;28;20096;-73
2021/03/31 05:28:53;;;;;;;12.50;6.97;;;;;;;;;;5032053;28;20060;-73
2021/03/31 05:31:19;;;;;;;14.77;6.22;;;;;;;;;;5033288;28;20545;-73
2021/03/31 05:33:45;;;;;;;11.15;5.75;;;;;;;;;;5032994;28;20034;-73
2021/03/31 05:36:11;;;;;;;15.35;8.02;;;;;;;;;;5032149;28;20094;-73
2021/03/31 05:38:38;;;;;;;13.60;7.20;;;;;;;;;;5033256;28;20029;-73
2021/03/31 05:41:04;;;;;;;12.88;7.55;;;;;;;;;;5033781;28;20022;-73
2021/03/31 05:43:30;;;;;;;12.60;6.65;;;;;;;;;;5033678;28;20036;-73
2021/03/31 05:45:57;;;;;;;13.57;6.20;;;;;;;;;;5034967;28;20021;-73
2021/03/31 05:48:24;;;;;;;13.48;5.57;;;;;;;;;;5034492;28;20087;-73
2021/03/31 05:50:50;;;;;;;9.20;5.00;;;;;;;;;;5034377;28;20021;-73
2021/03/31 05:53:16;;;;;;;11.13;6.18;;;;;;;;;;5035081;28;20025;-73
2021/03/31 05:55:42;;;;;;;10.40;5.30;;;;;;;;;;5034560;28;20492;-73
2021/03/31 05:58:09;;;;;;;11.18;5.80;;;;;;;;;;5033353;28;20038;-73
2021/03/31 06:00:35;;;;;;;10.05;6.03;;;;;;;;;;5034238;28;20025;-73
2021/03/31 06:03:05;;;;;;;14.50;6.80;;;;;;;;;;5034600;28;20056;-73
2021/03/31 06:05:32;;;;;;;13.20;6.88;;;;;;;;;;5034713;28;20031;-73
2021/03/31 06:07:59;;;;;;;10.65;6.47;;;;;;;;;;5034175;28;20025;-73
2021/03/31 06:10:29;;;;;;;11.23;6.03;;;;;;;;;;5034478;28;20355;-73
2021/03/31 06:12:58;;;;;;;10.30;5.57;;;;;;;;;;5034459;28;20022;-73
2021/03/31 06:15:31;;;;;;;14.88;7.38;;;;;;;;;;5032908;28;20106;-73
2021/03/31 06:18:17;;;;;;;12.83;6.90;;;;;;;;;;5034169;28;20491;-73
2021/03/31 06:20:57;;;;;;;11.13;5.45;;;;;;;;;;5032943;28;20103;-73
2021/03/31 06:23:37;;;;;;;12.48;7.00;;;;;;;;;;5033954;28;20021;-73
2021/03/31 06:26:17;;;;;;;8.52;5.15;;;;;;;;;;5033014;28;20036;-73
2021/03/31 06:28:43;;;;;;;12.70;5.97;;;;;;;;;;5033984;28;20057;-78
2021/03/31 06:31:13;;;;;;;9.95;5.60;;;;;;;;;;5033013;28;20104;-80
2021/03/31 06:33:42;;;;;;;14.38;6.93;;;;;;;;;;5034478;28;20025;-74
2021/03/31 06:36:10;;;;;;;10.38;5.85;;;;;;;;;;5033679;28;20025;-75
2021/03/31 06:38:38;;;;;;;12.43;5.75;;;;;;;;;;5032558;28;20502;-75
2021/03/31 06:41:30;;;;;;;12.82;6.68;;;;;;;;;;5033917;28;20024;-77
2021/03/31 06:44:09;;;;;;;16.63;6.95;;;;;;;;;;5033458;28;20104;-73
2021/03/31 06:47:03;;;;;;;10.55;5.57;;;;;;;;;;5067872;28;20407;-74
2021/03/31 06:49:29;;;;;;;10.80;5.60;;;;;;;;;;5047853;28;20022;-75
2021/03/31 06:52:02;;;;;;;13.20;5.80;;;;;;;;;;5047933;28;20067;-76
2021/03/31 06:54:29;;;;;;;8.68;5.22;;;;;;;;;;5049658;28;20021;-75
2021/03/31 06:56:57;;;;;;;11.85;6.22;;;;;;;;;;5049325;28;20021;-75
2021/03/31 06:59:29;;;;;;;10.55;5.40;;;;;;;;;;5049412;28;20025;-76
2021/03/31 07:01:56;;;;;;;11.10;6.28;;;;;;;;;;5048037;28;20040;-73
2021/03/31 07:07:03;;;;;;;11.90;5.32;;;;;;;;;;5068916;27;21042;-74
2021/03/31 07:10:50;;;;;;;11.98;5.80;;;;;;;;;;5109254;27;20320;-75
2021/03/31 07:13:16;;;;;;;;;;;;;;;;;;5108405;28;20085;-76
2021/03/31 07:15:42;;;;;;;11.48;5.70;;;;;;;;;;5108443;28;19907;-76
2021/03/31 07:18:09;;;;;;;9.93;4.82;;;;;;;;;;5109708;28;20084;-75
2021/03/31 07:20:35;;;;;;;10.07;5.40;;;;;;;;;;5110205;28;20068;-73
2021/03/31 07:23:01;;;;;;;10.48;6.13;;;;;;;;;;5109937;28;20047;-74
2021/03/31 07:25:28;;;;;;;10.75;5.97;;;;;;;;;;5102253;28;20369;-74
2021/03/31 07:27:57;;;;;;;11.52;6.25;;;;;;;;;;5109842;28;20153;-75
2021/03/31 07:30:26;;;;;;;8.98;5.20;;;;;;;;;;5110021;28;20028;-75
2021/03/31 07:34:27;;;;;;;10.50;5.75;;;;;;;;;;5110260;27;20381;-74
2021/03/31 07:38:14;;;;;;;10.20;4.93;;;;;;;;;;5110390;27;20485;-74
2021/03/31 07:40:40;;;;;;;20.13;5.25;;;;;;;;;;5109864;28;20057;-76
2021/03/31 07:43:13;;;;;;;7.40;4.70;;;;;;;;;;5110226;28;20026;-77
2021/03/31 07:48:13;;;;;;;8.65;4.60;;;;;;;;;;5127848;27;20324;-73
2021/03/31 07:50:40;;;;;;;8.65;4.45;;;;;;;;;;5109047;28;20030;-74
2021/03/31 07:56:35;;;;;;;11.90;4.85;;;;;;;;;;5069876;28;20384;-72
2021/03/31 07:59:06;;;;;;;8.02;4.70;;;;;;;;;;5068033;28;20058;-74
2021/03/31 08:01:34;;;;;;;10.18;4.32;;;;;;;;;;5065146;28;20024;-78
2021/03/31 08:04:04;;;;;;;8.38;4.75;;;;;;;;;;5065084;28;20023;-74
2021/03/31 08:06:30;;;;;;;8.70;4.82;;;;;;;;;;5069439;28;20028;-77
2021/03/31 08:10:37;;;;;;;11.45;5.38;;;;;;;;;;5069750;28;20426;-76
2021/03/31 08:14:52;;;;;;;10.85;5.32;;;;;;;;;;5069599;27;20733;-75
2021/03/31 08:17:19;;;;;;;12.70;4.55;;;;;;;;;;5069217;28;20032;-76
2021/03/31 08:23:48;;;;;;;11.95;5.15;;;;;;;;;;5069313;28;20384;-75
2021/03/31 08:26:33;;;;;;;13.02;5.13;;;;;;;;;;5068335;28;20089;-74
2021/03/31 08:29:00;;;;;;;17.25;5.68;;;;;;;;;;5067718;28;20027;-76
2021/03/31 08:31:28;;;;;;;9.02;4.78;;;;;;;;;;5054247;28;20039;-75
2021/03/31 08:33:54;;;;;;;8.07;4.32;;;;;;;;;;5055900;28;20394;-74
2021/03/31 08:36:21;;;;;;;11.48;4.50;;;;;;;;;;5052525;28;20034;-75
2021/03/31 08:38:51;;;;;;;13.02;4.93;;;;;;;;;;5048022;28;20040;-76
2021/03/31 08:42:28;;;;;;;13.93;5.00;;;;;;;;;;5110023;27;20511;-74
2021/03/31 08:45:39;;;;;;;8.95;4.65;;;;;;;;;;5067763;28;20404;-75
2021/03/31 08:48:06;;;;;;;9.70;4.93;;;;;;;;;;5064983;28;20078;-73
2021/03/31 08:50:34;;;;;;;9.23;4.32;;;;;;;;;;5068592;28;20430;-75
2021/03/31 08:53:01;;;;;;;7.70;4.05;;;;;;;;;;5068790;28;20060;-76
2021/03/31 08:55:31;;;;;;;7.75;4.50;;;;;;;;;;5068853;28;20056;-75
2021/03/31 08:57:57;;;;;;;9.05;3.95;;;;;;;;;;5068383;28;20030;-74
2021/03/31 09:00:24;;;;;;;11.32;5.75;;;;;;;;;;5068644;28;20025;-74
2021/03/31 09:02:50;;;;;;;14.27;4.65;;;;;;;;;;5068007;28;20024;-75
2021/03/31 09:05:16;;;;;;;10.10;5.50;;;;;;;;;;5058018;28;20044;-74
2021/03/31 09:07:43;;;;;;;9.98;5.68;;;;;;;;;;5048762;28;20044;-76
2021/03/31 09:10:12;;;;;;;9.23;5.18;;;;;;;;;;5055208;28;20028;-73
2021/03/31 09:13:00;;;;;;;10.55;5.38;;;;;;;;;;5068236;28;20396;-79
2021/03/31 09:15:54;;;;;;;12.43;5.15;;;;;;;;;;5067973;28;20453;-76
2021/03/31 09:20:28;;;;;;;13.50;4.95;;;;;;;;;;5109813;27;20373;-77
2021/03/31 09:23:53;;;;;;;8.45;4.60;;;;;;;;;;5054532;28;20389;-75
2021/03/31 09:26:22;;;;;;;9.45;4.65;;;;;;;;;;5049271;28;20479;-78
2021/03/31 09:30:17;;;;;;;9.20;4.43;;;;;;;;;;5069689;28;20388;-76
2021/03/31 09:32:51;;;;;;;10.70;4.15;;;;;;;;;;5068166;28;20025;-76
2021/03/31 09:35:18;;;;;;;11.48;4.32;;;;;;;;;;5069806;28;20025;-76
2021/03/31 09:37:46;;;;;;;10.15;4.90;;;;;;;;;;5069555;28;20091;-74
2021/03/31 09:40:21;;;;;;;11.05;4.85;;;;;;;;;;5069121;28;20117;-75
2021/03/31 09:42:54;;;;;;;9.30;4.28;;;;;;;;;;5069536;28;20389;-77
2021/03/31 09:45:23;;;;;;;12.37;5.20;;;;;;;;;;5069525;28;20021;-76
2021/03/31 09:47:49;;;;;;;17.35;5.95;;;;;;;;;;5068609;28;20533;-79
2021/03/31 09:50:15;;;;;;;9.68;4.13;;;;;;;;;;5069320;28;20488;-75
2021/03/31 09:52:42;;;;;;;11.52;5.20;;;;;;;;;;5068925;28;20044;-78
2021/03/31 09:55:09;;;;;;;9.60;5.60;;;;;;;;;;5068018;28;20067;-78
2021/03/31 09:59:34;;;;;;;8.27;5.25;;;;;;;;;;5069140;28;20388;-78
2021/03/31 10:02:01;;;;;;;7.20;4.32;;;;;;;;;;5069247;28;20021;-78
2021/03/31 10:04:28;;;;;;;11.55;6.25;;;;;;;;;;5069211;28;20031;-78
2021/03/31 10:07:30;;;;;;;12.70;5.80;;;;;;;;;;5067787;28;20920;-78
2021/03/31 10:09:56;;;;;;;16.38;6.15;;;;;;;;;;5047046;28;20052;-77
2021/03/31 10:12:27;;;;;;;9.15;5.05;;;;;;;;;;5065076;28;20102;-79
2021/03/31 10:17:00;;;;;;;9.70;5.22;;;;;;;;;;5069777;28;20461;-80
2021/03/31 10:19:27;;;;;;;8.45;4.70;;;;;;;;;;5069895;28;20035;-80
2021/03/31 10:22:05;;;;;;;10.25;5.07;;;;;;;;;;5069281;28;20048;-80
2021/03/31 10:24:35;;;;;;;11.73;5.45;;;;;;;;;;5069611;28;20063;-79
2021/03/31 10:27:01;;;;;;;11.82;5.68;;;;;;;;;;5068274;28;20025;-78
2021/03/31 10:29:27;;;;;;;11.93;6.45;;;;;;;;;;5069611;28;20052;-79
2021/03/31 10:31:54;;;;;;;10.32;5.45;;;;;;;;;;5054078;28;20096;-79
2021/03/31 10:34:21;;;;;;;9.40;5.00;;;;;;;;;;5055018;28;20021;-79
2021/03/31 10:37:10;;;;;;;9.07;4.97;;;;;;;;;;5047732;28;20037;-78
2021/03/31 10:50:06;;;;;;;12.75;5.75;;;;;;;;;;5068767;28;20395;-81
2021/03/31 10:52:35;;;;;;;9.68;5.28;;;;;;;;;;5069089;28;20502;-78
2021/03/31 10:55:01;;;;;;;12.90;7.07;;;;;;;;;;5069677;28;20099;-78
2021/03/31 10:57:27;;;;;;;9.82;4.72;;;;;;;;;;5068892;28;20496;-78
2021/03/31 10:59:53;;;;;;;8.80;3.60;;;;;;;;;;5069241;28;20473;-75
2021/03/31 11:02:20;;;;;;;10.00;4.03;;;;;;;;;;5069205;28;20033;-80
2021/03/31 11:04:46;;;;;;;10.60;4.32;;;;;;;;;;5068959;28;20027;-79
2021/03/31 11:07:12;;;;;;;7.00;3.70;;;;;;;;;;5061689;28;20056;-77
2021/03/31 11:09:40;;;;;;;6.18;3.60;;;;;;;;;;5063601;28;20028;-78
2021/03/31 11:12:07;;;;;;;6.75;3.78;;;;;;;;;;5065099;28;20096;-78
2021/03/31 11:14:33;;;;;;;8.75;4.20;;;;;;;;;;5067128;28;20025;-75
2021/03/31 11:17:03;;;;;;;10.07;4.55;;;;;;;;;;5068728;28;20029;-79
2021/03/31 11:19:47;;;;;;;8.50;3.67;;;;;;;;;;5067722;28;20122;-76
2021/03/31 11:27:43;;;;;;;6.32;3.42;;;;;;;;;;5068943;28;20128;-74
2021/03/31 11:30:29;;;;;;;6.97;3.72;;;;;;;;;;5069728;28;20379;-74
2021/03/31 11:32:55;;;;;;;8.80;3.90;;;;;;;;;;5067475;28;20619;-73
2021/03/31 11:35:21;;;;;;;9.25;3.60;;;;;;;;;;5068221;28;20024;-74
2021/03/31 11:37:47;;;;;;;7.70;4.43;;;;;;;;;;5066596;28;20045;-74
2021/03/31 11:40:14;;;;;;;10.65;4.18;;;;;;;;;;5067282;28;20104;-75
2021/03/31 11:42:40;;;;;;;13.40;5.43;;;;;;;;;;5066201;28;20443;-74
2021/03/31 11:45:06;;;;;;;10.15;4.40;;;;;;;;;;5065964;28;20469;-74
2021/03/31 11:47:33;;;;;;;7.88;4.28;;;;;;;;;;5067570;28;20384;-75
2021/03/31 11:49:59;;;;;;;6.10;3.17;;;;;;;;;;5067427;28;20473;-74
2021/03/31 11:52:25;;;;;;;7.57;3.90;;;;;;;;;;5068249;28;20031;-74
2021/03/31 11:54:51;;;;;;;6.57;3.53;;;;;;;;;;5069035;28;20497;-74
2021/03/31 11:57:17;;;;;;;8.35;3.95;;;;;;;;;;5069030;28;20032;-74
2021/03/31 11:59:43;;;;;;;7.72;4.07;;;;;;;;;;5068974;28;20440;-74
2021/03/31 12:02:10;;;;;;;8.23;4.50;;;;;;;;;;5068923;28;20024;-74
2021/03/31 12:04:36;;;;;;;11.95;5.18;;;;;;;;;;5067661;28;20075;-73
2021/03/31 12:07:04;;;;;;;7.43;4.35;;;;;;;;;;5068469;28;20017;-73
2021/03/31 12:09:30;;;;;;;6.63;3.40;;;;;;;;;;5068957;28;20040;-73
2021/03/31 12:11:58;;;;;;;6.18;2.83;;;;;;;;;;5068980;28;20531;-74
2021/03/31 12:14:24;;;;;;;7.25;3.40;;;;;;;;;;5068585;28;20020;-73
2021/03/31 12:16:51;;;;;;;5.55;3.35;;;;;;;;;;5068709;28;20027;-73
2021/03/31 12:19:17;;;;;;;9.68;4.13;;;;;;;;;;5067202;28;20389;-73
2021/03/31 12:21:43;;;;;;;6.50;3.22;;;;;;;;;;5068203;28;20049;-73
2021/03/31 12:24:10;;;;;;;5.78;3.55;;;;;;;;;;5068798;28;20031;-74
2021/03/31 12:26:36;;;;;;;7.00;3.55;;;;;;;;;;5068614;28;20028;-73
2021/03/31 12:29:02;;;;;;;9.73;3.83;;;;;;;;;;5067874;28;20044;-73
2021/03/31 12:31:28;;;;;;;6.13;3.50;;;;;;;;;;5068687;28;20028;-73
2021/03/31 12:33:54;;;;;;;7.82;3.60;;;;;;;;;;5068569;28;20037;-73
2021/03/31 12:36:21;;;;;;;6.72;3.70;;;;;;;;;;5068010;28;20458;-73
2021/03/31 12:38:47;;;;;;;5.68;2.95;;;;;;;;;;5068242;28;20021;-73
2021/03/31 12:41:13;;;;;;;8.75;3.00;;;;;;;;;;5057097;28;20363;-73
2021/03/31 12:43:39;;;;;;;7.65;3.38;;;;;;;;;;5054565;28;20646;-72
2021/03/31 12:46:05;;;;;;;6.55;2.83;;;;;;;;;;5055298;28;20074;-72
2021/03/31 12:48:32;;;;;;;5.88;3.17;;;;;;;;;;5054477;28;20124;-73
2021/03/31 12:51:11;;;;;;;7.03;3.80;;;;;;;;;;5055052;28;20473;-73
2021/03/31 12:53:42;;;;;;;6.07;3.78;;;;;;;;;;5055040;28;20381;-73
2021/03/31 12:56:08;;;;;;;18.33;3.67;;;;;;;;;;5054446;28;20021;-72
2021/03/31 12:58:39;;;;;;;7.38;3.30;;;;;;;;;;5054791;28;20381;-72
2021/03/31 13:01:12;;;;;;;5.85;3.13;;;;;;;;;;5054645;28;20017;-73
2021/03/31 13:03:38;;;;;;;6.55;3.42;;;;;;;;;;5054107;28;20052;-73
2021/03/31 13:06:05;;;;;;;6.30;3.25;;;;;;;;;;5054536;28;20067;-73
2021/03/31 13:08:31;;;;;;;5.32;3.05;;;;;;;;;;5054549;28;20100;-72
2021/03/31 13:10:57;;;;;;;5.13;3.20;;;;;;;;;;5054253;28;20025;-72
2021/03/31 13:32:36;;;;;;;6.72;3.25;;;;;;;;;;5054177;28;20068;-73
2021/03/31 13:38:48;;;;;;;8.18;3.97;;;;;;;;;;5053363;28;20040;-72
2021/03/31 13:40:38;;;;;;;6.10;3.47;;;;;;;;;;5053407;28;20057;-72
2021/03/31 13:43:04;;;;;;;6.05;3.28;;;;;;;;;;5053982;28;20108;-72
2021/03/31 13:45:31;;;;;;;9.07;3.10;;;;;;;;;;5053529;28;20439;-73
2021/03/31 13:48:00;;;;;;;13.07;3.95;;;;;;;;;;5053963;28;20025;-73
2021/03/31 13:50:27;;;;;;;8.35;3.58;;;;;;;;;;5053931;28;20083;-73
2021/03/31 13:52:56;;;;;;;5.18;3.15;;;;;;;;;;5052461;28;20477;-73
2021/03/31 13:55:27;;;;;;;6.13;2.70;;;;;;;;;;5052352;28;20033;-73
2021/03/31 13:57:53;;;;;;;4.43;2.72;;;;;;;;;;5053738;28;20040;-72
2021/03/31 14:00:27;;;;;;;5.97;3.45;;;;;;;;;;5053215;28;20020;-73
2021/03/31 14:02:54;;;;;;;6.95;3.33;;;;;;;;;;5053578;28;20021;-73
2021/03/31 14:05:21;;;;;;;7.25;3.10;;;;;;;;;;5053412;28;20096;-72
2021/03/31 14:07:48;;;;;;;6.22;3.05;;;;;;;;;;5053102;28;20017;-72
2021/03/31 14:10:14;;;;;;;5.53;2.92;;;;;;;;;;5052311;28;20029;-73
2021/03/31 14:12:41;;;;;;;4.90;3.00;;;;;;;;;;5053319;28;20417;-73
2021/03/31 14:15:08;;;;;;;4.65;2.63;;;;;;;;;;5052932;28;20021;-73
2021/03/31 14:17:35;;;;;;;4.88;2.72;;;;;;;;;;5053181;28;20025;-72
2021/03/31 14:20:09;;;;;;;7.18;3.20;;;;;;;;;;5052753;28;20025;-72
2021/03/31 14:22:36;;;;;;;6.93;3.30;;;;;;;;;;5053076;28;20485;-72
2021/03/31 14:25:06;;;;;;;6.28;2.80;;;;;;;;;;5053087;28;20029;-72
2021/03/31 14:27:33;;;;;;;10.45;4.85;;;;;;;;;;5052681;28;20021;-72
2021/03/31 14:29:59;;;;;;;5.47;2.65;;;;;;;;;;5052965;28;20049;-73
2021/03/31 14:32:25;;;;;;;9.23;3.55;;;;;;;;;;5053057;28;20017;-73
2021/03/31 14:34:52;;;;;;;5.82;2.97;;;;;;;;;;5052518;28;20508;-73
2021/03/31 14:37:18;;;;;;;5.38;2.85;;;;;;;;;;5052862;28;20021;-73
2021/03/31 14:39:45;;;;;;;6.15;2.97;;;;;;;;;;5052873;28;20029;-71
2021/03/31 14:42:12;;;;;;;5.93;2.88;;;;;;;;;;5052474;28;20461;-72
2021/03/31 14:44:38;;;;;;;5.10;2.58;;;;;;;;;;5051312;28;20039;-73
2021/03/31 14:47:05;;;;;;;5.05;3.03;;;;;;;;;;5051278;28;20027;-72
2021/03/31 14:49:32;;;;;;;7.72;3.95;;;;;;;;;;5050889;28;20715;-73
2021/03/31 14:59:54;;;;;;;4.93;2.65;;;;;;;;;;5052667;28;20032;-72
2021/03/31 15:02:20;;;;;;;7.57;2.63;;;;;;;;;;5052143;28;20029;-73
2021/03/31 15:04:47;;;;;;;7.30;3.83;;;;;;;;;;5052284;28;20469;-72
2021/03/31 15:07:13;;;;;;;5.70;3.22;;;;;;;;;;5052476;28;20028;-74
2021/03/31 15:09:40;;;;;;;5.80;3.13;;;;;;;;;;5052183;28;20036;-72
2021/03/31 15:12:07;;;;;;;7.30;3.47;;;;;;;;;;5052628;28;20370;-74
2021/03/31 15:14:33;;;;;;;4.93;2.45;;;;;;;;;;5052431;28;20021;-73
2021/03/31 15:17:00;;;;;;;7.60;2.85;;;;;;;;;;5051980;28;20021;-73
2021/03/31 15:22:15;;;;;;;6.07;2.78;;;;;;;;;;5052169;28;20021;-73
2021/03/31 15:24:42;;;;;;;4.65;2.72;;;;;;;;;;5051765;28;20473;-72
2021/03/31 15:27:09;;;;;;;5.60;2.83;;;;;;;;;;5052086;28;20047;-72
2021/03/31 15:29:36;;;;;;;6.05;2.75;;;;;;;;;;5050670;28;20044;-73
2021/03/31 15:32:03;;;;;;;5.70;2.80;;;;;;;;;;5051951;28;20096;-73
2021/03/31 15:34:30;;;;;;;4.88;2.50;;;;;;;;;;5052011;28;20056;-73
2021/03/31 15:36:56;;;;;;;7.53;2.92;;;;;;;;;;5052230;28;20082;-73
2021/03/31 15:39:22;;;;;;;6.82;3.10;;;;;;;;;;5051554;28;20028;-73
2021/03/31 15:41:51;;;;;;;7.10;3.47;;;;;;;;;;5052149;28;20521;-73
2021/03/31 15:44:17;;;;;;;10.25;5.05;;;;;;;;;;5050636;28;20053;-73
2021/03/31 15:46:48;;;;;;;13.75;6.53;;;;;;;;;;5051994;28;20120;-73
2021/03/31 15:49:15;;;;;;;12.90;5.80;;;;;;;;;;5051975;28;20033;-73
2021/03/31 15:51:42;;;;;;;13.23;6.32;;;;;;;;;;5051740;28;20037;-73
2021/03/31 15:54:08;;;;;;;14.32;6.55;;;;;;;;;;5051958;28;20074;-72
2021/03/31 15:56:34;;;;;;;12.48;5.50;;;;;;;;;;5050633;28;20525;-74
2021/03/31 15:59:00;;;;;;;17.30;6.43;;;;;;;;;;5051584;28;20051;-73
2021/03/31 16:01:26;;;;;;;11.88;6.30;;;;;;;;;;5050659;28;20470;-73
2021/03/31 16:04:00;;;;;;;18.88;6.85;;;;;;;;;;5052028;28;20024;-74